Time;durP1;ratioP1;P1;durP2;ratioP2;P2;SDS_P1;SDS_P2;PMS_P1;PMS_P2;Temp;Humidity;BMP_temperature;BMP_pressure;BME280_temperature;BME280_humidity;BME280_pressure;Samples;Min_cycle;Max_cycle;Signal;HPM_P1;HPM_P2
2023/01/10 00:00:04;;;;;;;0.30;0.30;;;;;;;4.17;100.00;96498.13;5070277;28;20238;-58
2023/01/10 00:02:30;;;;;;;0.97;0.60;;;;;;;4.23;100.00;96500.28;5071067;28;20221;-56
2023/01/10 00:04:57;;;;;;;1.20;0.53;;;;;;;4.26;100.00;96500.91;5070388;28;21380;-58
2023/01/10 00:07:23;;;;;;;1.97;0.47;;;;;;;4.28;100.00;96508.66;5071524;28;20214;-57
2023/01/10 00:09:51;;;;;;;0.37;0.37;;;;;;;4.28;100.00;96513.91;5069748;28;20202;-58
2023/01/10 00:15:02;;;;;;;1.03;0.60;;;;;;;4.28;100.00;96517.38;5070312;28;20218;-58
2023/01/10 00:17:28;;;;;;;1.03;0.50;;;;;;;4.31;100.00;96530.22;5070905;28;20198;-56
2023/01/10 00:19:55;;;;;;;0.57;0.50;;;;;;;4.33;100.00;96527.50;5070247;28;20588;-58
2023/01/10 00:22:23;;;;;;;1.03;0.60;;;;;;;4.47;100.00;96533.44;5070522;28;20202;-56
2023/01/10 00:24:52;;;;;;;1.73;0.67;;;;;;;4.41;100.00;96546.13;5069497;28;20214;-57
2023/01/10 00:27:21;;;;;;;0.87;0.77;;;;;;;4.45;100.00;96547.59;5068995;28;20234;-57
2023/01/10 00:29:49;;;;;;;0.97;0.50;;;;;;;4.42;100.00;96558.28;5070311;28;20206;-58
2023/01/10 00:32:16;;;;;;;1.43;0.67;;;;;;;4.45;100.00;96561.50;5070365;28;20267;-57
2023/01/10 00:34:42;;;;;;;1.60;0.90;;;;;;;4.50;100.00;96558.56;5069949;28;20238;-56
2023/01/10 00:37:09;;;;;;;1.63;0.87;;;;;;;4.47;100.00;96572.69;5069957;28;20551;-56
2023/01/10 00:39:35;;;;;;;1.63;0.93;;;;;;;4.50;100.00;96579.50;5070272;28;20222;-58
2023/01/10 00:44:48;;;;;;;1.57;0.70;;;;;;;4.58;100.00;96600.75;5069427;28;20205;-57
2023/01/10 00:47:15;;;;;;;3.70;0.90;;;;;;;4.53;100.00;96598.44;5073618;28;20293;-57
2023/01/10 00:49:41;;;;;;;1.43;0.90;;;;;;;4.59;100.00;96607.69;5073527;28;20531;-56
2023/01/10 00:52:08;;;;;;;1.30;0.60;;;;;;;4.64;100.00;96602.94;5073799;28;20537;-58
2023/01/10 00:54:35;;;;;;;2.77;0.90;;;;;;;4.64;100.00;96610.78;5073323;28;20227;-57
2023/01/10 00:57:02;;;;;;;0.77;0.60;;;;;;;4.65;100.00;96619.50;5073155;28;20206;-58
2023/01/10 00:59:29;;;;;;;1.33;0.63;;;;;;;4.72;100.00;96629.44;5073337;28;20199;-57
2023/01/10 01:01:55;;;;;;;1.50;0.70;;;;;;;4.71;100.00;96632.19;5073639;28;20198;-59
2023/01/10 01:04:22;;;;;;;0.97;0.60;;;;;;;4.79;100.00;96640.31;5072197;28;20201;-57
2023/01/10 01:06:49;;;;;;;2.80;0.90;;;;;;;4.79;100.00;96642.94;5072781;28;20631;-57
2023/01/10 01:09:16;;;;;;;0.77;0.70;;;;;;;4.72;100.00;96645.16;5073095;28;20206;-58
2023/01/10 01:11:42;;;;;;;2.40;1.00;;;;;;;4.77;100.00;96650.91;5074184;28;20206;-57
2023/01/10 01:14:10;;;;;;;1.17;0.70;;;;;;;4.77;100.00;96653.53;5097291;28;20219;-57
2023/01/10 01:16:37;;;;;;;1.43;1.00;;;;;;;4.79;100.00;96666.50;5097915;28;20253;-57
2023/01/10 01:19:03;;;;;;;1.90;1.13;;;;;;;4.80;100.00;96676.91;5094168;28;20199;-57
2023/01/10 01:21:30;;;;;;;0.73;0.70;;;;;;;4.78;100.00;96684.00;5076304;28;20202;-58
2023/01/10 01:23:57;;;;;;;0.80;0.77;;;;;;;4.77;100.00;96695.44;5073189;28;20207;-56
2023/01/10 01:26:23;;;;;;;1.10;0.90;;;;;;;4.72;100.00;96692.31;5073831;28;20199;-57
2023/01/10 01:28:50;;;;;;;0.80;0.80;;;;;;;4.77;100.00;96705.09;5072379;28;20534;-58
2023/01/10 01:31:18;;;;;;;1.33;0.70;;;;;;;4.68;100.00;96711.78;5073512;28;20198;-57
2023/01/10 01:33:45;;;;;;;1.80;0.80;;;;;;;4.83;100.00;96721.22;5072918;28;20218;-58
2023/01/10 01:36:12;;;;;;;0.73;0.70;;;;;;;4.75;100.00;96722.69;5073044;28;20211;-57
2023/01/10 01:38:39;;;;;;;2.00;0.70;;;;;;;4.78;100.00;96733.78;5073071;28;20216;-58
2023/01/10 01:41:55;;;;;;;1.60;0.90;;;;;;;4.75;100.00;96734.00;5072643;28;20205;-57
2023/01/10 01:44:01;;;;;;;1.80;0.80;;;;;;;4.84;100.00;96743.88;5077208;28;20335;-57
2023/01/10 01:46:29;;;;;;;1.17;0.53;;;;;;;4.87;100.00;96754.13;5077626;28;20686;-56
2023/01/10 01:48:56;;;;;;;2.87;1.20;;;;;;;4.81;100.00;96756.34;5083177;28;20198;-57
2023/01/10 01:51:25;;;;;;;1.63;0.63;;;;;;;4.75;100.00;96764.59;5073184;28;20206;-57
2023/01/10 01:53:54;;;;;;;1.50;0.90;;;;;;;4.70;100.00;96751.81;5073334;28;20199;-60
2023/01/10 01:56:23;;;;;;;0.87;0.60;;;;;;;4.73;100.00;96761.25;5072053;28;20209;-58
2023/01/10 01:58:53;;;;;;;2.70;0.80;;;;;;;4.75;100.00;96770.66;5071658;28;20201;-58
2023/01/10 02:01:19;;;;;;;2.03;0.70;;;;;;;4.77;100.00;96775.81;5072176;28;20234;-57
2023/01/10 02:03:50;;;;;;;1.83;1.07;;;;;;;4.85;100.00;96776.97;5072563;28;20211;-57
2023/01/10 02:06:18;;;;;;;1.30;0.90;;;;;;;4.91;100.00;96775.72;5073957;28;20190;-57
2023/01/10 02:08:49;;;;;;;2.60;1.07;;;;;;;4.85;100.00;96786.63;5072844;28;20206;-57
2023/01/10 02:11:16;;;;;;;1.50;0.70;;;;;;;4.84;100.00;96779.69;5072386;28;20255;-57
2023/01/10 02:13:44;;;;;;;2.03;0.90;;;;;;;4.73;100.00;96788.28;5072320;28;20213;-58
2023/01/10 02:16:11;;;;;;;3.67;1.20;;;;;;;4.82;100.00;96792.03;5072563;28;20218;-58
2023/01/10 02:18:41;;;;;;;3.50;1.13;;;;;;;4.79;100.00;96795.72;5072410;28;20222;-57
2023/01/10 02:21:24;;;;;;;2.77;1.20;;;;;;;4.75;100.00;96802.09;5072440;28;20234;-57
2023/01/10 02:24:35;;;;;;;5.80;1.00;;;;;;;4.70;100.00;96792.91;5072525;28;20211;-56
2023/01/10 02:27:19;;;;;;;2.83;1.47;;;;;;;4.73;100.00;96804.00;5072044;28;20198;-56
2023/01/10 02:30:08;;;;;;;6.33;1.60;;;;;;;4.71;100.00;96811.09;5072101;28;20198;-58
2023/01/10 02:32:41;;;;;;;3.27;1.23;;;;;;;4.72;100.00;96823.28;5072161;28;20199;-56
2023/01/10 02:35:14;;;;;;;6.20;1.40;;;;;;;4.68;100.00;96827.03;5071263;28;20513;-57
2023/01/10 02:37:46;;;;;;;2.87;1.23;;;;;;;4.73;100.00;96830.19;5072407;28;20234;-56
2023/01/10 02:40:20;;;;;;;7.30;1.70;;;;;;;4.70;100.00;96840.03;5070771;28;20293;-58
2023/01/10 02:42:51;;;;;;;5.83;1.80;;;;;;;4.64;100.00;96836.03;5071734;28;20202;-57
2023/01/10 02:45:22;;;;;;;4.40;1.57;;;;;;;4.66;100.00;96836.78;5071728;28;20523;-56
2023/01/10 02:47:50;;;;;;;2.33;1.27;;;;;;;4.67;100.00;96845.50;5071453;28;20244;-56
2023/01/10 02:50:29;;;;;;;4.87;1.10;;;;;;;4.69;100.00;96847.06;5071736;28;20206;-58
2023/01/10 02:52:59;;;;;;;3.70;1.03;;;;;;;4.70;100.00;96861.84;5071510;28;20558;-57
2023/01/10 02:55:29;;;;;;;6.07;1.57;;;;;;;4.75;100.00;96854.50;5071112;28;20225;-58
2023/01/10 02:57:59;;;;;;;4.57;1.43;;;;;;;4.75;100.00;96862.34;5070398;28;20195;-58
2023/01/10 03:00:41;;;;;;;5.00;1.60;;;;;;;4.72;100.00;96864.34;5070548;28;20230;-58
2023/01/10 03:03:15;;;;;;;2.50;1.20;;;;;;;4.66;100.00;96864.75;5070889;28;20638;-56
2023/01/10 03:05:52;;;;;;;3.40;1.27;;;;;;;4.66;100.00;96859.53;5070869;28;20288;-57
2023/01/10 03:08:27;;;;;;;3.07;1.20;;;;;;;4.63;100.00;96868.44;5071363;28;20198;-58
2023/01/10 03:10:57;;;;;;;2.67;1.00;;;;;;;4.61;100.00;96880.78;5071313;28;20202;-57
2023/01/10 03:13:27;;;;;;;3.80;1.20;;;;;;;4.63;100.00;96897.25;5071701;28;20331;-58
2023/01/10 03:15:54;;;;;;;3.93;1.47;;;;;;;4.63;100.00;96897.25;5071370;28;20224;-57
2023/01/10 03:18:25;;;;;;;3.10;1.37;;;;;;;4.56;100.00;96909.06;5071279;28;20543;-58
2023/01/10 03:20:52;;;;;;;4.00;1.07;;;;;;;4.58;100.00;96911.56;5071250;28;20194;-57
2023/01/10 03:23:19;;;;;;;2.17;1.00;;;;;;;4.47;100.00;96920.09;5070851;28;20198;-58
2023/01/10 03:25:46;;;;;;;2.53;1.07;;;;;;;4.48;100.00;96927.88;5070938;28;20194;-58
2023/01/10 03:28:17;;;;;;;6.10;1.60;;;;;;;4.49;100.00;96932.19;5071054;28;20202;-58
2023/01/10 03:30:46;;;;;;;1.27;1.07;;;;;;;4.45;100.00;96940.34;5071914;28;20282;-57
2023/01/10 03:33:14;;;;;;;3.40;1.33;;;;;;;4.39;100.00;96931.06;5071058;28;20221;-58
2023/01/10 03:35:56;;;;;;;2.83;1.30;;;;;;;4.35;100.00;96936.63;5070353;28;20662;-57
2023/01/10 03:38:26;;;;;;;3.00;1.40;;;;;;;4.39;100.00;96940.72;5071139;28;20206;-59
2023/01/10 03:40:56;;;;;;;3.03;1.17;;;;;;;4.36;100.00;96949.59;5072578;28;20214;-58
2023/01/10 03:46:14;;;;;;;5.07;1.83;;;;;;;4.34;100.00;96950.66;5095149;28;20194;-56
2023/01/10 03:48:44;;;;;;;5.30;1.27;;;;;;;4.36;100.00;96952.22;5086201;28;20190;-57
2023/01/10 03:51:12;;;;;;;4.40;1.70;;;;;;;4.32;100.00;96957.78;5072833;28;20221;-57
2023/01/10 03:53:40;;;;;;;1.90;1.23;;;;;;;4.29;100.00;96961.41;5072022;28;20206;-58
2023/01/10 03:56:07;;;;;;;4.73;1.43;;;;;;;4.34;100.00;96967.19;5070564;28;20214;-57
2023/01/10 03:58:34;;;;;;;3.67;1.53;;;;;;;4.32;100.00;96981.34;5070183;28;20211;-58
2023/01/10 04:01:01;;;;;;;3.03;1.30;;;;;;;4.37;100.00;96982.72;5070434;28;20241;-58
2023/01/10 04:03:27;;;;;;;3.00;1.20;;;;;;;4.32;100.00;96983.94;5070925;28;20553;-57
2023/01/10 04:05:54;;;;;;;3.93;1.40;;;;;;;4.31;100.00;96995.34;5071075;28;20198;-56
2023/01/10 04:08:22;;;;;;;4.60;1.63;;;;;;;4.34;100.00;96998.63;5072586;28;20202;-58
2023/01/10 04:10:49;;;;;;;5.40;1.80;;;;;;;4.27;100.00;97004.31;5070768;28;20199;-57
2023/01/10 04:13:15;;;;;;;4.73;1.30;;;;;;;4.20;100.00;97014.34;5070910;28;20199;-57
2023/01/10 04:15:41;;;;;;;4.43;1.40;;;;;;;4.23;100.00;97008.06;5070541;28;20662;-58
2023/01/10 04:18:08;;;;;;;3.27;1.27;;;;;;;4.23;100.00;97005.44;5071506;28;20208;-58
2023/01/10 04:20:36;;;;;;;2.33;1.33;;;;;;;4.15;100.00;97010.31;5071458;28;20650;-56
2023/01/10 04:23:02;;;;;;;3.87;1.63;;;;;;;4.28;100.00;97022.56;5074675;28;20203;-56
2023/01/10 04:25:30;;;;;;;5.17;1.17;;;;;;;4.24;100.00;97020.22;5074473;28;20202;-58
2023/01/10 04:27:57;;;;;;;3.73;1.23;;;;;;;4.19;100.00;97030.13;5074181;28;20538;-58
2023/01/10 04:30:23;;;;;;;2.87;1.10;;;;;;;4.19;100.00;97032.75;5074401;28;20214;-58
2023/01/10 04:32:50;;;;;;;2.20;0.90;;;;;;;4.26;100.00;97023.56;5074772;28;20199;-58
2023/01/10 04:35:16;;;;;;;7.53;1.57;;;;;;;4.31;100.00;97034.63;5074801;28;20245;-57
2023/01/10 04:37:43;;;;;;;5.00;1.20;;;;;;;4.33;100.00;97035.34;5074718;28;20222;-57
2023/01/10 04:40:11;;;;;;;3.37;1.10;;;;;;;4.32;100.00;97041.53;5074847;28;20214;-56
2023/01/10 04:42:39;;;;;;;1.67;1.13;;;;;;;4.29;100.00;97047.78;5077737;28;20202;-58
2023/01/10 04:45:10;;;;;;;4.70;1.40;;;;;;;4.30;100.00;97046.00;5092116;28;20203;-61
2023/01/10 04:47:37;;;;;;;1.93;1.10;;;;;;;4.34;100.00;97056.22;5089794;28;20199;-58
2023/01/10 04:50:04;;;;;;;4.77;1.30;;;;;;;4.31;100.00;97045.94;5090276;28;20195;-61
2023/01/10 04:52:31;;;;;;;5.23;1.43;;;;;;;4.29;100.00;97052.19;5091911;28;20217;-59
2023/01/10 04:54:57;;;;;;;4.23;1.40;;;;;;;4.24;100.00;97052.47;5094648;28;20202;-59
2023/01/10 04:57:23;;;;;;;2.20;1.00;;;;;;;4.23;100.00;97052.56;5094077;28;20305;-58
2023/01/10 04:59:51;;;;;;;2.23;1.00;;;;;;;4.22;100.00;97059.56;5077414;28;20745;-58
2023/01/10 05:02:18;;;;;;;3.47;1.30;;;;;;;4.24;100.00;97072.59;5073370;28;20213;-57
2023/01/10 05:04:44;;;;;;;1.83;1.00;;;;;;;4.26;100.00;97073.31;5073789;28;20202;-57
2023/01/10 05:07:11;;;;;;;3.10;1.20;;;;;;;4.24;100.00;97093.53;5074005;28;20213;-57
2023/01/10 05:09:37;;;;;;;4.60;1.37;;;;;;;4.24;100.00;97094.38;5073285;28;20293;-57
2023/01/10 05:12:04;;;;;;;2.67;1.23;;;;;;;4.28;100.00;97097.63;5073203;28;20281;-57
2023/01/10 05:14:31;;;;;;;2.67;1.40;;;;;;;4.30;100.00;97103.59;5072560;28;20788;-57
2023/01/10 05:16:59;;;;;;;3.00;1.70;;;;;;;4.35;100.00;97101.56;5073129;28;20222;-58
2023/01/10 05:19:25;;;;;;;3.17;1.10;;;;;;;4.34;100.00;97111.19;5073070;28;20206;-58
2023/01/10 05:21:55;;;;;;;1.73;1.17;;;;;;;4.44;100.00;97114.09;5072220;28;20646;-57
2023/01/10 05:24:22;;;;;;;1.90;0.80;;;;;;;4.41;100.00;97117.75;5072471;28;20616;-57
2023/01/10 05:26:49;;;;;;;6.00;1.20;;;;;;;4.42;100.00;97129.91;5073257;28;20214;-57
2023/01/10 05:29:15;;;;;;;3.53;0.77;;;;;;;4.38;100.00;97131.03;5073185;28;20214;-57
2023/01/10 05:31:42;;;;;;;2.33;1.30;;;;;;;4.44;100.00;97137.66;5073113;28;20205;-58
2023/01/10 05:34:12;;;;;;;3.57;1.60;;;;;;;4.55;100.00;97150.94;5072497;28;20238;-58
2023/01/10 05:36:39;;;;;;;3.07;1.30;;;;;;;4.53;100.00;97158.06;5072887;28;20272;-58
2023/01/10 05:39:05;;;;;;;1.50;0.97;;;;;;;4.48;100.00;97154.88;5071565;28;20194;-57
2023/01/10 05:41:32;;;;;;;3.03;1.07;;;;;;;4.46;100.00;97160.19;5072979;28;20214;-58
2023/01/10 05:43:58;;;;;;;2.20;1.37;;;;;;;4.46;100.00;97161.97;5071923;28;20211;-58
2023/01/10 05:46:25;;;;;;;3.33;1.10;;;;;;;4.53;100.00;97156.25;5072877;28;20202;-57
2023/01/10 05:48:52;;;;;;;5.10;1.40;;;;;;;4.45;100.00;97155.91;5072166;28;20207;-58
2023/01/10 05:51:19;;;;;;;3.80;1.27;;;;;;;4.48;100.00;97149.63;5072623;28;20202;-56
2023/01/10 05:53:46;;;;;;;3.13;0.83;;;;;;;4.46;100.00;97156.75;5072150;28;20205;-56
2023/01/10 05:56:12;;;;;;;3.63;1.27;;;;;;;4.40;100.00;97160.56;5072101;28;20237;-57
2023/01/10 05:58:39;;;;;;;3.70;1.30;;;;;;;4.41;100.00;97164.03;5072265;28;20203;-56
2023/01/10 06:01:06;;;;;;;4.13;1.20;;;;;;;4.42;100.00;97176.19;5072249;28;20249;-59
2023/01/10 06:03:32;;;;;;;2.83;1.07;;;;;;;4.35;100.00;97161.78;5072642;28;20198;-57
2023/01/10 06:05:59;;;;;;;3.63;1.40;;;;;;;4.36;100.00;97176.53;5072299;28;20199;-56
2023/01/10 06:08:26;;;;;;;3.00;1.27;;;;;;;4.38;100.00;97178.16;5072555;28;20549;-58
2023/01/10 06:10:53;;;;;;;3.27;1.50;;;;;;;4.40;100.00;97176.28;5080721;28;20198;-56
2023/01/10 06:13:20;;;;;;;2.00;1.10;;;;;;;4.44;100.00;97187.41;5095660;28;20272;-55
2023/01/10 06:15:46;;;;;;;2.73;1.23;;;;;;;4.43;100.00;97189.19;5097045;28;20222;-57
2023/01/10 06:18:13;;;;;;;2.50;1.10;;;;;;;4.46;100.00;97198.66;5086811;28;20217;-54
2023/01/10 06:20:39;;;;;;;2.87;1.00;;;;;;;4.57;100.00;97209.28;5075108;28;20199;-54
2023/01/10 06:23:06;;;;;;;3.67;1.30;;;;;;;4.58;100.00;97203.13;5073018;28;20213;-55
2023/01/10 06:25:39;;;;;;;3.90;1.07;;;;;;;4.57;100.00;97201.44;5071340;28;20221;-57
2023/01/10 06:28:06;;;;;;;4.03;1.23;;;;;;;4.48;100.00;97207.25;5072135;28;20222;-55
2023/01/10 06:30:35;;;;;;;2.17;1.13;;;;;;;4.53;100.00;97215.69;5076965;28;20619;-55
2023/01/10 06:33:02;;;;;;;4.07;1.87;;;;;;;4.45;100.00;97216.13;5076930;28;20289;-57
2023/01/10 06:35:29;;;;;;;2.13;1.00;;;;;;;4.47;100.00;97223.88;5076427;28;20205;-56
2023/01/10 06:37:56;;;;;;;4.30;1.30;;;;;;;4.49;100.00;97229.88;5075795;28;20207;-56
2023/01/10 06:40:23;;;;;;;2.93;1.10;;;;;;;4.51;100.00;97233.25;5076711;28;20198;-56
2023/01/10 06:42:51;;;;;;;7.07;4.77;;;;;;;4.53;100.00;97239.25;5078250;28;20249;-56
2023/01/10 06:45:18;;;;;;;2.27;1.80;;;;;;;4.56;100.00;97241.69;5076989;28;20203;-58
2023/01/10 06:47:45;;;;;;;7.03;1.40;;;;;;;4.55;100.00;97244.38;5080169;28;20230;-58
2023/01/10 06:50:11;;;;;;;1.33;0.80;;;;;;;4.59;100.00;97249.34;5071783;28;20531;-58
2023/01/10 06:52:40;;;;;;;8.43;2.00;;;;;;;4.61;100.00;97250.09;5077842;28;20198;-56
2023/01/10 06:55:08;;;;;;;3.90;1.37;;;;;;;4.53;100.00;97256.72;5079798;28;21030;-56
2023/01/10 06:57:37;;;;;;;3.13;1.40;;;;;;;4.57;100.00;97263.47;5078732;28;20280;-56
2023/01/10 07:00:08;;;;;;;3.47;1.30;;;;;;;4.45;100.00;97265.88;5080293;28;20238;-57
2023/01/10 07:02:35;;;;;;;1.70;1.07;;;;;;;4.44;100.00;97269.44;5079918;28;20191;-57
2023/01/10 07:05:02;;;;;;;2.90;1.27;;;;;;;4.53;100.00;97277.69;5079881;28;20194;-57
2023/01/10 07:07:29;;;;;;;3.40;1.30;;;;;;;4.53;100.00;97281.16;5076001;28;20229;-56
2023/01/10 07:09:56;;;;;;;3.80;1.30;;;;;;;4.53;100.00;97288.16;5071362;28;20203;-57
2023/01/10 07:12:23;;;;;;;5.90;1.47;;;;;;;4.46;100.00;97295.53;5071205;28;20210;-57
2023/01/10 07:14:49;;;;;;;6.20;3.40;;;;;;;4.48;100.00;97296.28;5071423;28;20589;-57
2023/01/10 07:17:20;;;;;;;4.33;1.97;;;;;;;4.46;100.00;97283.25;5071391;28;20233;-56
2023/01/10 07:19:46;;;;;;;2.60;1.63;;;;;;;4.50;100.00;97300.47;5070989;28;20541;-57
2023/01/10 07:22:13;;;;;;;2.00;0.97;;;;;;;4.48;100.00;97312.00;5071480;28;20209;-57
2023/01/10 07:24:39;;;;;;;4.23;1.27;;;;;;;4.49;100.00;97313.69;5070633;28;20662;-57
2023/01/10 07:27:06;;;;;;;5.50;1.37;;;;;;;4.47;100.00;97300.66;5071686;28;20199;-56
2023/01/10 07:29:32;;;;;;;2.57;1.37;;;;;;;4.44;100.00;97311.31;5071465;28;20221;-57
2023/01/10 07:31:59;;;;;;;1.77;1.00;;;;;;;4.51;100.00;97315.28;5072019;28;20231;-57
2023/01/10 07:34:27;;;;;;;3.63;1.33;;;;;;;4.57;100.00;97310.63;5071167;28;20206;-57
2023/01/10 07:36:53;;;;;;;3.33;1.20;;;;;;;4.62;100.00;97322.50;5071058;28;20225;-57
2023/01/10 07:39:20;;;;;;;3.03;1.03;;;;;;;4.65;100.00;97318.84;5070755;28;20520;-58
2023/01/10 07:41:47;;;;;;;4.10;1.60;;;;;;;4.62;100.00;97325.13;5071184;28;20294;-56
2023/01/10 07:44:13;;;;;;;2.90;1.47;;;;;;;4.71;100.00;97329.81;5070859;28;20268;-58
2023/01/10 07:46:40;;;;;;;3.90;1.17;;;;;;;4.68;100.00;97337.00;5070604;28;20198;-57
2023/01/10 07:49:06;;;;;;;4.17;1.70;;;;;;;4.67;100.00;97333.56;5071217;28;20206;-56
2023/01/10 07:51:34;;;;;;;4.67;1.43;;;;;;;4.75;100.00;97339.19;5071035;28;20206;-57
2023/01/10 07:54:01;;;;;;;2.60;1.40;;;;;;;4.75;100.00;97339.19;5070303;28;20206;-57
2023/01/10 07:56:27;;;;;;;2.03;1.30;;;;;;;4.71;100.00;97340.28;5073486;28;20280;-57
2023/01/10 07:58:54;;;;;;;2.70;1.30;;;;;;;4.70;100.00;97354.34;5074570;28;20631;-58
2023/01/10 08:01:21;;;;;;;1.97;1.00;;;;;;;4.74;100.00;97348.00;5074789;28;20218;-57
2023/01/10 08:03:47;;;;;;;1.60;1.07;;;;;;;4.74;100.00;97334.91;5075425;28;20202;-57
2023/01/10 08:06:14;;;;;;;4.17;0.83;;;;;;;4.72;100.00;97339.38;5075337;28;20213;-56
2023/01/10 08:08:42;;;;;;;1.73;1.40;;;;;;;4.72;100.00;97328.88;5074749;28;20620;-56
2023/01/10 08:11:09;;;;;;;2.70;1.20;;;;;;;4.71;100.00;97335.03;5074606;28;20529;-56
2023/01/10 08:13:35;;;;;;;2.50;1.03;;;;;;;4.76;100.00;97342.66;5075184;28;20214;-57
2023/01/10 08:16:05;;;;;;;1.97;1.03;;;;;;;4.82;100.00;97352.75;5074969;28;20216;-57
2023/01/10 08:18:31;;;;;;;1.77;1.00;;;;;;;4.78;100.00;97356.53;5075510;28;20202;-57
2023/01/10 08:20:58;;;;;;;0.83;0.80;;;;;;;4.79;100.00;97355.56;5074196;28;20209;-56
2023/01/10 08:23:25;;;;;;;3.40;1.60;;;;;;;4.81;100.00;97366.81;5074817;28;20206;-57
2023/01/10 08:25:54;;;;;;;3.73;1.50;;;;;;;4.82;100.00;97373.72;5081957;28;20206;-59
2023/01/10 08:28:20;;;;;;;2.30;1.20;;;;;;;4.93;100.00;97376.56;5077983;28;20194;-57
2023/01/10 08:30:47;;;;;;;2.70;1.23;;;;;;;4.88;100.00;97379.47;5084980;28;20211;-57
2023/01/10 08:33:14;;;;;;;2.37;0.77;;;;;;;4.95;100.00;97375.56;5084100;28;20249;-57
2023/01/10 08:35:41;;;;;;;3.60;1.60;;;;;;;4.98;100.00;97375.38;5079934;28;20190;-58
2023/01/10 08:38:09;;;;;;;2.33;1.30;;;;;;;5.04;100.00;97382.00;5080357;28;20226;-58
2023/01/10 08:40:36;;;;;;;3.03;1.20;;;;;;;5.10;100.00;97378.19;5082706;28;20289;-57
2023/01/10 08:43:07;;;;;;;2.47;1.30;;;;;;;5.16;100.00;97380.44;5083240;28;20312;-57
2023/01/10 08:45:34;;;;;;;3.23;0.90;;;;;;;5.17;100.00;97380.38;5083150;28;20209;-57
2023/01/10 08:48:00;;;;;;;2.30;0.80;;;;;;;5.20;100.00;97384.56;5097683;28;20186;-55
2023/01/10 08:50:27;;;;;;;2.90;0.90;;;;;;;5.19;100.00;97381.09;5093960;28;20205;-58
2023/01/10 08:52:54;;;;;;;2.10;1.17;;;;;;;5.24;100.00;97376.44;5091641;28;20221;-57
2023/01/10 08:55:21;;;;;;;1.97;1.10;;;;;;;5.30;100.00;97372.59;5077894;28;20214;-57
2023/01/10 08:57:47;;;;;;;2.87;1.00;;;;;;;5.34;100.00;97381.97;5079766;28;20229;-57
2023/01/10 09:00:16;;;;;;;1.57;1.00;;;;;;;5.43;100.00;97387.47;5079479;28;20759;-59
2023/01/10 09:02:44;;;;;;;2.37;1.27;;;;;;;5.51;100.00;97392.25;5078432;28;20203;-58
2023/01/10 09:05:13;;;;;;;2.70;1.33;;;;;;;5.52;100.00;97391.34;5057508;28;20627;-57
2023/01/10 09:07:40;;;;;;;2.47;1.33;;;;;;;5.65;100.00;97394.88;5075295;28;20253;-58
2023/01/10 09:10:11;;;;;;;3.87;1.50;;;;;;;5.79;100.00;97400.13;5084008;28;20194;-58
2023/01/10 09:12:58;;;;;;;2.50;1.17;;;;;;;5.95;100.00;97405.31;5084222;28;20193;-57
2023/01/10 09:15:27;;;;;;;2.03;0.97;;;;;;;6.28;96.95;97402.31;5079201;28;20202;-57
2023/01/10 09:17:56;;;;;;;0.83;0.73;;;;;;;6.62;96.24;97422.00;5079524;28;20225;-57
2023/01/10 09:20:24;;;;;;;1.47;1.13;;;;;;;6.99;91.30;97424.72;5083543;28;20202;-57
2023/01/10 09:22:51;;;;;;;2.40;0.80;;;;;;;7.12;89.14;97423.94;5075235;28;20207;-56
2023/01/10 09:25:18;;;;;;;1.47;1.13;;;;;;;7.21;88.79;97425.94;5073606;28;20210;-56
2023/01/10 09:27:45;;;;;;;1.17;0.80;;;;;;;7.25;86.94;97432.66;5082889;28;20198;-56
2023/01/10 09:30:12;;;;;;;2.27;1.23;;;;;;;7.22;88.76;97435.50;5078675;28;20624;-58
2023/01/10 09:32:40;;;;;;;2.73;1.10;;;;;;;7.21;89.71;97426.78;5078790;28;20267;-57
2023/01/10 09:35:07;;;;;;;3.27;1.00;;;;;;;7.17;87.10;97441.06;5077529;28;20194;-57
2023/01/10 09:37:36;;;;;;;1.10;0.80;;;;;;;7.02;88.69;97431.56;5077830;28;20532;-57
2023/01/10 09:40:05;;;;;;;3.67;1.00;;;;;;;6.87;88.11;97440.50;5075769;28;20207;-56
2023/01/10 09:42:42;;;;;;;1.57;0.77;;;;;;;6.81;93.32;97446.97;5074119;28;20203;-57
2023/01/10 09:45:15;;;;;;;3.63;1.13;;;;;;;6.86;94.60;97442.28;5073140;28;20199;-57
2023/01/10 09:47:49;;;;;;;1.57;1.00;;;;;;;6.86;94.73;97444.91;5073778;28;20236;-57
2023/01/10 09:50:19;;;;;;;3.80;1.27;;;;;;;7.02;93.22;97449.97;5073311;28;20202;-57
2023/01/10 09:52:48;;;;;;;2.40;1.10;;;;;;;7.07;90.46;97452.31;5073969;28;20194;-57
2023/01/10 09:55:23;;;;;;;1.43;0.80;;;;;;;7.22;90.35;97448.66;5072919;28;20207;-57
2023/01/10 09:57:51;;;;;;;2.23;1.20;;;;;;;7.27;92.36;97457.06;5072135;28;20249;-57
2023/01/10 10:00:21;;;;;;;2.80;1.13;;;;;;;7.62;90.44;97447.63;5072906;28;20222;-57
2023/01/10 10:02:51;;;;;;;2.83;1.33;;;;;;;7.54;86.51;97455.22;5074197;28;20202;-55
2023/01/10 10:05:20;;;;;;;2.70;1.40;;;;;;;7.59;85.02;97458.38;5076672;28;20661;-58
2023/01/10 10:07:51;;;;;;;1.67;1.00;;;;;;;7.73;87.71;97457.41;5077024;28;20206;-58
2023/01/10 10:10:24;;;;;;;2.07;1.10;;;;;;;7.72;86.28;97451.31;5077190;28;20196;-57
2023/01/10 10:13:00;;;;;;;1.50;1.00;;;;;;;7.98;86.75;97455.63;5079236;28;20191;-57
2023/01/10 10:15:31;;;;;;;2.33;1.20;;;;;;;7.92;83.74;97439.41;5079229;28;20197;-58
2023/01/10 10:18:10;;;;;;;4.00;1.00;;;;;;;7.98;83.49;97455.63;5076793;28;20223;-57
2023/01/10 10:20:47;;;;;;;3.00;0.90;;;;;;;8.20;82.99;97452.31;5077217;28;20207;-57
2023/01/10 10:23:29;;;;;;;0.97;0.70;;;;;;;8.35;85.99;97447.78;5074184;28;20193;-58
2023/01/10 10:26:02;;;;;;;1.67;1.07;;;;;;;8.69;80.43;97451.47;5072427;28;20194;-57
2023/01/10 10:28:51;;;;;;;1.73;0.93;;;;;;;8.99;78.41;97443.94;5072951;28;20236;-55
2023/01/10 10:31:23;;;;;;;2.50;0.90;;;;;;;9.15;78.09;97446.28;5072175;28;20218;-57
2023/01/10 10:33:59;;;;;;;2.13;0.97;;;;;;;9.29;75.96;97444.28;5072538;28;20195;-55
2023/01/10 10:36:34;;;;;;;2.93;0.80;;;;;;;9.34;77.94;97438.66;5072763;28;20197;-58
2023/01/10 10:39:02;;;;;;;2.23;1.03;;;;;;;9.44;76.79;97434.38;5072046;28;20645;-57
2023/01/10 10:41:32;;;;;;;3.03;1.23;;;;;;;9.29;78.23;97431.09;5072772;28;20203;-56
2023/01/10 10:44:03;;;;;;;2.90;1.03;;;;;;;8.95;78.67;97429.28;5072964;28;20230;-56
2023/01/10 10:46:31;;;;;;;3.63;1.17;;;;;;;8.62;81.53;97429.97;5072780;28;20259;-57
2023/01/10 10:49:01;;;;;;;2.77;1.00;;;;;;;8.47;82.05;97441.63;5073207;28;20883;-57
2023/01/10 10:51:30;;;;;;;4.80;1.53;;;;;;;8.26;80.05;97433.44;5073028;28;20201;-57
2023/01/10 10:53:56;;;;;;;3.47;1.20;;;;;;;8.20;79.37;97438.31;5073245;28;20202;-58
2023/01/10 10:56:24;;;;;;;2.67;0.93;;;;;;;8.11;80.35;97434.53;5071998;28;20190;-58
2023/01/10 10:58:54;;;;;;;2.40;1.10;;;;;;;7.91;81.48;97437.72;5071908;28;20218;-57
2023/01/10 11:01:21;;;;;;;2.40;1.10;;;;;;;7.83;80.82;97440.88;5072198;28;20266;-58
2023/01/10 11:03:50;;;;;;;2.37;0.97;;;;;;;7.76;81.38;97434.34;5072619;28;20195;-58
2023/01/10 11:06:20;;;;;;;1.80;1.03;;;;;;;7.70;80.97;97433.94;5071271;28;20226;-57
2023/01/10 11:08:48;;;;;;;2.77;0.87;;;;;;;7.61;80.04;97424.06;5072346;28;20312;-56
2023/01/10 11:11:20;;;;;;;1.93;0.90;;;;;;;7.54;80.97;97423.66;5071169;28;20223;-58
2023/01/10 11:13:49;;;;;;;4.33;1.30;;;;;;;7.60;80.04;97428.47;5072109;28;20205;-55
2023/01/10 11:16:28;;;;;;;3.37;0.83;;;;;;;7.48;82.39;97426.69;5071935;28;20205;-57
2023/01/10 11:19:19;;;;;;;3.40;0.97;;;;;;;7.41;83.79;97428.88;5094747;28;20249;-57
2023/01/10 11:21:50;;;;;;;1.33;0.83;;;;;;;7.53;81.96;97429.84;5095818;28;20191;-62
2023/01/10 11:24:27;;;;;;;1.97;1.03;;;;;;;7.42;82.53;97424.47;5089169;28;20191;-57
2023/01/10 11:26:53;;;;;;;2.53;0.90;;;;;;;7.34;83.81;97426.78;5071191;28;20187;-57
2023/01/10 11:29:23;;;;;;;3.37;1.20;;;;;;;7.15;83.45;97421.94;5070266;28;20543;-57
2023/01/10 11:31:50;;;;;;;1.73;1.00;;;;;;;7.25;85.62;97416.88;5070744;28;20914;-57
2023/01/10 11:34:21;;;;;;;4.30;1.20;;;;;;;7.20;84.69;97413.72;5070722;28;20194;-57
2023/01/10 11:36:58;;;;;;;2.40;0.90;;;;;;;7.20;83.70;97418.97;5070539;28;20209;-56
2023/01/10 11:39:24;;;;;;;1.63;0.90;;;;;;;7.30;83.71;97401.63;5069761;28;20623;-56
2023/01/10 11:41:52;;;;;;;2.43;0.90;;;;;;;7.59;83.12;97423.31;5070730;28;20210;-58
2023/01/10 11:44:23;;;;;;;1.90;1.10;;;;;;;7.75;81.15;97409.00;5070072;28;20210;-58
2023/01/10 11:46:52;;;;;;;1.23;0.87;;;;;;;7.89;80.98;97408.03;5070809;28;20206;-57
2023/01/10 11:49:26;;;;;;;2.53;1.17;;;;;;;7.87;78.72;97410.75;5071444;28;20202;-56